sensor_id;sensor_type;location;lat;lon;timestamp;pressure;altitude;pressure_sealevel;temperature;humidity
35577;BME280;21680;52.400;16.920;2023-01-27T00:00:21;101189.84;;;0.13;94.10
35577;BME280;21680;52.400;16.920;2023-01-27T00:02:47;101189.33;;;0.15;94.36
35577;BME280;21680;52.400;16.920;2023-01-27T00:05:14;101186.34;;;0.16;94.25
35577;BME280;21680;52.400;16.920;2023-01-27T00:07:40;101189.45;;;0.10;93.96
35577;BME280;21680;52.400;16.920;2023-01-27T00:10:17;101188.39;;;0.08;93.95
35577;BME280;21680;52.400;16.920;2023-01-27T00:12:44;101187.12;;;0.01;94.03
35577;BME280;21680;52.400;16.920;2023-01-27T00:15:30;101188.34;;;-0.02;94.08
35577;BME280;21680;52.400;16.920;2023-01-27T00:17:56;101187.64;;;0.00;94.45
35577;BME280;21680;52.400;16.920;2023-01-27T00:20:22;101186.95;;;-0.01;94.21
35577;BME280;21680;52.400;16.920;2023-01-27T00:25:57;101190.45;;;-0.02;94.18
35577;BME280;21680;52.400;16.920;2023-01-27T00:28:25;101187.81;;;-0.03;94.17
35577;BME280;21680;52.400;16.920;2023-01-27T00:30:51;101185.54;;;-0.01;94.39
35577;BME280;21680;52.400;16.920;2023-01-27T00:33:16;101180.27;;;0.01;94.37
35577;BME280;21680;52.400;16.920;2023-01-27T00:35:58;101180.99;;;0.06;94.49
35577;BME280;21680;52.400;16.920;2023-01-27T00:38:25;101183.65;;;0.10;94.52
35577;BME280;21680;52.400;16.920;2023-01-27T00:40:51;101186.51;;;0.14;94.55
35577;BME280;21680;52.400;16.920;2023-01-27T00:43:34;101189.86;;;0.16;94.58
35577;BME280;21680;52.400;16.920;2023-01-27T00:46:00;101185.11;;;0.17;94.46
35577;BME280;21680;52.400;16.920;2023-01-27T00:48:26;101189.89;;;0.19;94.55
35577;BME280;21680;52.400;16.920;2023-01-27T00:50:51;101192.73;;;0.23;94.54
35577;BME280;21680;52.400;16.920;2023-01-27T00:53:16;101198.70;;;0.23;94.50
35577;BME280;21680;52.400;16.920;2023-01-27T00:55:42;101202.19;;;0.19;94.32
35577;BME280;21680;52.400;16.920;2023-01-27T00:58:07;101203.02;;;0.15;94.37
35577;BME280;21680;52.400;16.920;2023-01-27T01:00:32;101200.75;;;0.16;94.41
35577;BME280;21680;52.400;16.920;2023-01-27T01:02:57;101201.30;;;0.19;94.55
35577;BME280;21680;52.400;16.920;2023-01-27T01:05:23;101200.41;;;0.17;94.48
35577;BME280;21680;52.400;16.920;2023-01-27T01:07:48;101204.25;;;0.14;94.59
35577;BME280;21680;52.400;16.920;2023-01-27T01:10:14;101212.86;;;0.13;94.59
35577;BME280;21680;52.400;16.920;2023-01-27T01:12:40;101212.86;;;0.13;94.63
35577;BME280;21680;52.400;16.920;2023-01-27T01:15:05;101212.16;;;0.14;94.76
35577;BME280;21680;52.400;16.920;2023-01-27T01:17:31;101211.64;;;0.14;94.66
35577;BME280;21680;52.400;16.920;2023-01-27T01:19:56;101209.14;;;0.10;94.48
35577;BME280;21680;52.400;16.920;2023-01-27T01:22:21;101210.14;;;0.02;94.51
35577;BME280;21680;52.400;16.920;2023-01-27T01:24:47;101207.84;;;-0.02;94.69
35577;BME280;21680;52.400;16.920;2023-01-27T01:27:12;101203.94;;;-0.06;94.44
35577;BME280;21680;52.400;16.920;2023-01-27T01:29:37;101206.01;;;-0.11;94.56
35577;BME280;21680;52.400;16.920;2023-01-27T01:32:03;101211.06;;;-0.15;94.73
35577;BME280;21680;52.400;16.920;2023-01-27T01:34:28;101210.89;;;-0.15;94.96
35577;BME280;21680;52.400;16.920;2023-01-27T01:36:54;101214.39;;;-0.16;94.72
35577;BME280;21680;52.400;16.920;2023-01-27T01:39:19;101212.64;;;-0.15;94.87
35577;BME280;21680;52.400;16.920;2023-01-27T01:41:44;101215.08;;;-0.17;94.90
35577;BME280;21680;52.400;16.920;2023-01-27T01:44:28;101216.85;;;-0.16;94.99
35577;BME280;21680;52.400;16.920;2023-01-27T01:46:53;101215.28;;;-0.14;95.02
35577;BME280;21680;52.400;16.920;2023-01-27T01:49:22;101213.86;;;-0.15;94.89
35577;BME280;21680;52.400;16.920;2023-01-27T01:51:54;101211.06;;;-0.15;95.05
35577;BME280;21680;52.400;16.920;2023-01-27T01:54:27;101210.52;;;-0.18;94.93
35577;BME280;21680;52.400;16.920;2023-01-27T01:57:17;101210.87;;;-0.17;95.06
35577;BME280;21680;52.400;16.920;2023-01-27T01:59:49;101209.78;;;-0.20;94.97
35577;BME280;21680;52.400;16.920;2023-01-27T02:02:17;101206.95;;;-0.22;95.08
35577;BME280;21680;52.400;16.920;2023-01-27T02:04:50;101204.84;;;-0.22;95.11
35577;BME280;21680;52.400;16.920;2023-01-27T02:07:25;101201.68;;;-0.23;95.14
35577;BME280;21680;52.400;16.920;2023-01-27T02:09:53;101205.39;;;-0.21;95.29
35577;BME280;21680;52.400;16.920;2023-01-27T02:12:20;101206.63;;;-0.19;95.21
35577;BME280;21680;52.400;16.920;2023-01-27T02:14:45;101209.27;;;-0.20;95.26
35577;BME280;21680;52.400;16.920;2023-01-27T02:17:11;101208.77;;;-0.16;95.38
35577;BME280;21680;52.400;16.920;2023-01-27T02:22:49;101205.26;;;-0.16;95.38
35577;BME280;21680;52.400;16.920;2023-01-27T02:27:58;101208.59;;;-0.16;95.20
35577;BME280;21680;52.400;16.920;2023-01-27T02:30:23;101209.98;;;-0.18;95.12
35577;BME280;21680;52.400;16.920;2023-01-27T02:32:48;101215.45;;;-0.16;95.20
35577;BME280;21680;52.400;16.920;2023-01-27T02:35:20;101219.48;;;-0.15;95.30
35577;BME280;21680;52.400;16.920;2023-01-27T02:37:47;101222.66;;;-0.14;95.21
35577;BME280;21680;52.400;16.920;2023-01-27T02:40:14;101224.96;;;-0.12;95.39
35577;BME280;21680;52.400;16.920;2023-01-27T02:42:40;101221.29;;;-0.11;95.28
35577;BME280;21680;52.400;16.920;2023-01-27T02:45:06;101228.80;;;-0.14;95.17
35577;BME280;21680;52.400;16.920;2023-01-27T02:47:31;101225.98;;;-0.16;95.17
35577;BME280;21680;52.400;16.920;2023-01-27T02:49:56;101230.20;;;-0.16;95.24
35577;BME280;21680;52.400;16.920;2023-01-27T02:52:22;101231.42;;;-0.17;95.16
35577;BME280;21680;52.400;16.920;2023-01-27T02:54:47;101234.76;;;-0.16;95.10
35577;BME280;21680;52.400;16.920;2023-01-27T02:57:13;101240.20;;;-0.16;95.26
35577;BME280;21680;52.400;16.920;2023-01-27T02:59:38;101234.79;;;-0.15;95.15
35577;BME280;21680;52.400;16.920;2023-01-27T03:02:03;101232.70;;;-0.12;95.25
35577;BME280;21680;52.400;16.920;2023-01-27T03:04:28;101227.25;;;-0.12;95.17
35577;BME280;21680;52.400;16.920;2023-01-27T03:06:54;101231.65;;;-0.10;95.05
35577;BME280;21680;52.400;16.920;2023-01-27T03:09:19;101236.21;;;-0.11;95.08
35577;BME280;21680;52.400;16.920;2023-01-27T03:11:44;101233.23;;;-0.10;95.14
35577;BME280;21680;52.400;16.920;2023-01-27T03:14:28;101236.40;;;-0.10;95.25
35577;BME280;21680;52.400;16.920;2023-01-27T03:17:12;101236.58;;;-0.09;95.01
35577;BME280;21680;52.400;16.920;2023-01-27T03:19:57;101236.04;;;-0.11;95.08
35577;BME280;21680;52.400;16.920;2023-01-27T03:22:22;101235.67;;;-0.13;95.01
35577;BME280;21680;52.400;16.920;2023-01-27T03:24:47;101232.87;;;-0.12;95.05
35577;BME280;21680;52.400;16.920;2023-01-27T03:27:12;101236.20;;;-0.13;95.14
35577;BME280;21680;52.400;16.920;2023-01-27T03:29:38;101235.13;;;-0.15;95.03
35577;BME280;21680;52.400;16.920;2023-01-27T03:32:23;101229.63;;;-0.20;94.77
35577;BME280;21680;52.400;16.920;2023-01-27T03:34:49;101231.34;;;-0.24;94.89
35577;BME280;21680;52.400;16.920;2023-01-27T03:37:15;101235.03;;;-0.24;94.88
35577;BME280;21680;52.400;16.920;2023-01-27T03:39:59;101238.55;;;-0.23;94.95
35577;BME280;21680;52.400;16.920;2023-01-27T03:42:43;101235.57;;;-0.22;94.86
35577;BME280;21680;52.400;16.920;2023-01-27T03:45:27;101229.02;;;-0.28;94.79
35577;BME280;21680;52.400;16.920;2023-01-27T03:48:11;101228.63;;;-0.33;94.80
35577;BME280;21680;52.400;16.920;2023-01-27T03:50:37;101227.00;;;-0.38;94.72
35577;BME280;21680;52.400;16.920;2023-01-27T03:53:10;101229.80;;;-0.38;94.89
35577;BME280;21680;52.400;16.920;2023-01-27T03:55:37;101230.88;;;-0.36;94.93
35577;BME280;21680;52.400;16.920;2023-01-27T03:58:03;101230.02;;;-0.35;95.06
35577;BME280;21680;52.400;16.920;2023-01-27T04:01:21;101230.05;;;-0.31;94.97
35577;BME280;21680;52.400;16.920;2023-01-27T04:03:47;101231.48;;;-0.29;94.86
35577;BME280;21680;52.400;16.920;2023-01-27T04:06:33;101234.30;;;-0.26;94.92
35577;BME280;21680;52.400;16.920;2023-01-27T04:09:31;101240.30;;;-0.24;94.96
35577;BME280;21680;52.400;16.920;2023-01-27T04:11:59;101243.78;;;-0.28;94.78
35577;BME280;21680;52.400;16.920;2023-01-27T04:16:55;101244.79;;;-0.32;94.92
35577;BME280;21680;52.400;16.920;2023-01-27T04:19:20;101243.56;;;-0.31;94.80
35577;BME280;21680;52.400;16.920;2023-01-27T04:21:46;101252.16;;;-0.33;94.86
35577;BME280;21680;52.400;16.920;2023-01-27T04:24:12;101254.10;;;-0.31;94.91
35577;BME280;21680;52.400;16.920;2023-01-27T04:26:45;101255.70;;;-0.30;95.00
35577;BME280;21680;52.400;16.920;2023-01-27T04:29:12;101260.27;;;-0.29;94.86
35577;BME280;21680;52.400;16.920;2023-01-27T04:31:38;101262.03;;;-0.29;94.90
35577;BME280;21680;52.400;16.920;2023-01-27T04:34:03;101263.63;;;-0.27;95.01
35577;BME280;21680;52.400;16.920;2023-01-27T04:36:29;101265.91;;;-0.27;94.75
35577;BME280;21680;52.400;16.920;2023-01-27T04:38:54;101264.68;;;-0.27;94.87
35577;BME280;21680;52.400;16.920;2023-01-27T04:41:19;101270.52;;;-0.23;94.94
35577;BME280;21680;52.400;16.920;2023-01-27T04:43:44;101270.52;;;-0.22;94.86
35577;BME280;21680;52.400;16.920;2023-01-27T04:46:10;101270.90;;;-0.21;94.88
35577;BME280;21680;52.400;16.920;2023-01-27T04:48:35;101272.65;;;-0.21;95.10
35577;BME280;21680;52.400;16.920;2023-01-27T04:51:00;101270.75;;;-0.18;94.88
35577;BME280;21680;52.400;16.920;2023-01-27T04:53:26;101265.16;;;-0.15;94.83
35577;BME280;21680;52.400;16.920;2023-01-27T04:55:51;101265.52;;;-0.15;94.74
35577;BME280;21680;52.400;16.920;2023-01-27T04:58:16;101264.41;;;-0.19;94.73
35577;BME280;21680;52.400;16.920;2023-01-27T05:00:43;101269.27;;;-0.24;94.62
35577;BME280;21680;52.400;16.920;2023-01-27T05:03:09;101271.88;;;-0.27;94.67
35577;BME280;21680;52.400;16.920;2023-01-27T05:05:36;101278.23;;;-0.25;94.86
35577;BME280;21680;52.400;16.920;2023-01-27T05:08:08;101280.70;;;-0.23;94.85
35577;BME280;21680;52.400;16.920;2023-01-27T05:10:33;101277.02;;;-0.23;94.75
35577;BME280;21680;52.400;16.920;2023-01-27T05:12:59;101279.44;;;-0.26;94.65
35577;BME280;21680;52.400;16.920;2023-01-27T05:15:26;101283.74;;;-0.34;94.68
35577;BME280;21680;52.400;16.920;2023-01-27T05:17:51;101285.46;;;-0.38;94.68
35577;BME280;21680;52.400;16.920;2023-01-27T05:20:16;101284.77;;;-0.38;94.88
35577;BME280;21680;52.400;16.920;2023-01-27T05:22:42;101288.61;;;-0.39;94.68
35577;BME280;21680;52.400;16.920;2023-01-27T05:25:08;101288.77;;;-0.39;94.65
35577;BME280;21680;52.400;16.920;2023-01-27T05:27:34;101287.92;;;-0.38;94.89
35577;BME280;21680;52.400;16.920;2023-01-27T05:30:00;101287.94;;;-0.36;94.85
35577;BME280;21680;52.400;16.920;2023-01-27T05:32:26;101292.02;;;-0.33;94.88
35577;BME280;21680;52.400;16.920;2023-01-27T05:34:51;101294.35;;;-0.28;94.97
35577;BME280;21680;52.400;16.920;2023-01-27T05:37:16;101288.41;;;-0.25;95.10
35577;BME280;21680;52.400;16.920;2023-01-27T05:39:42;101289.46;;;-0.25;94.75
35577;BME280;21680;52.400;16.920;2023-01-27T05:42:07;101293.15;;;-0.25;94.78
35577;BME280;21680;52.400;16.920;2023-01-27T05:44:32;101296.10;;;-0.29;94.80
35577;BME280;21680;52.400;16.920;2023-01-27T05:46:58;101296.60;;;-0.31;94.67
35577;BME280;21680;52.400;16.920;2023-01-27T05:49:23;101297.32;;;-0.30;94.85
35577;BME280;21680;52.400;16.920;2023-01-27T05:51:48;101299.80;;;-0.27;94.96
35577;BME280;21680;52.400;16.920;2023-01-27T05:54:13;101301.92;;;-0.26;95.03
35577;BME280;21680;52.400;16.920;2023-01-27T05:56:39;101302.45;;;-0.26;94.94
35577;BME280;21680;52.400;16.920;2023-01-27T05:59:05;101300.48;;;-0.29;94.75
35577;BME280;21680;52.400;16.920;2023-01-27T06:01:32;101299.27;;;-0.29;94.93
35577;BME280;21680;52.400;16.920;2023-01-27T06:03:59;101300.52;;;-0.27;94.93
35577;BME280;21680;52.400;16.920;2023-01-27T06:06:26;101300.17;;;-0.25;95.15
35577;BME280;21680;52.400;16.920;2023-01-27T06:08:52;101303.02;;;-0.22;95.08
35577;BME280;21680;52.400;16.920;2023-01-27T06:11:18;101304.64;;;-0.18;95.10
35577;BME280;21680;52.400;16.920;2023-01-27T06:13:45;101308.29;;;-0.22;94.91
35577;BME280;21680;52.400;16.920;2023-01-27T06:16:12;101310.33;;;-0.28;94.90
35577;BME280;21680;52.400;16.920;2023-01-27T06:18:39;101309.44;;;-0.29;94.95
35577;BME280;21680;52.400;16.920;2023-01-27T06:21:07;101312.45;;;-0.26;95.17
35577;BME280;21680;52.400;16.920;2023-01-27T06:23:33;101316.54;;;-0.23;95.18
35577;BME280;21680;52.400;16.920;2023-01-27T06:26:18;101317.42;;;-0.22;95.19
35577;BME280;21680;52.400;16.920;2023-01-27T06:28:43;101319.17;;;-0.22;95.08
35577;BME280;21680;52.400;16.920;2023-01-27T06:31:18;101317.75;;;-0.24;95.05
35577;BME280;21680;52.400;16.920;2023-01-27T06:33:44;101320.54;;;-0.25;95.05
35577;BME280;21680;52.400;16.920;2023-01-27T06:36:15;101321.46;;;-0.23;95.05
35577;BME280;21680;52.400;16.920;2023-01-27T06:38:41;101325.90;;;-0.18;95.35
35577;BME280;21680;52.400;16.920;2023-01-27T06:41:07;101323.13;;;-0.15;95.38
35577;BME280;21680;52.400;16.920;2023-01-27T06:43:33;101319.10;;;-0.14;95.36
35577;BME280;21680;52.400;16.920;2023-01-27T06:45:58;101318.58;;;-0.13;95.30
35577;BME280;21680;52.400;16.920;2023-01-27T06:48:24;101317.70;;;-0.14;95.23
35577;BME280;21680;52.400;16.920;2023-01-27T06:50:51;101317.12;;;-0.18;95.42
35577;BME280;21680;52.400;16.920;2023-01-27T06:53:17;101318.86;;;-0.19;95.08
35577;BME280;21680;52.400;16.920;2023-01-27T06:55:42;101319.90;;;-0.20;95.28
35577;BME280;21680;52.400;16.920;2023-01-27T06:58:11;101316.41;;;-0.18;95.28
35577;BME280;21680;52.400;16.920;2023-01-27T07:00:37;101317.62;;;-0.20;95.29
35577;BME280;21680;52.400;16.920;2023-01-27T07:03:03;101316.89;;;-0.22;95.31
35577;BME280;21680;52.400;16.920;2023-01-27T07:05:30;101315.12;;;-0.24;95.48
35577;BME280;21680;52.400;16.920;2023-01-27T07:07:55;101316.89;;;-0.23;95.43
35577;BME280;21680;52.400;16.920;2023-01-27T07:10:20;101314.45;;;-0.20;95.55
35577;BME280;21680;52.400;16.920;2023-01-27T07:12:46;101318.34;;;-0.19;95.35
35577;BME280;21680;52.400;16.920;2023-01-27T07:15:12;101318.85;;;-0.20;95.37
35577;BME280;21680;52.400;16.920;2023-01-27T07:17:37;101319.36;;;-0.21;95.43
35577;BME280;21680;52.400;16.920;2023-01-27T07:20:04;101319.55;;;-0.20;95.36
35577;BME280;21680;52.400;16.920;2023-01-27T07:22:29;101321.17;;;-0.17;95.50
35577;BME280;21680;52.400;16.920;2023-01-27T07:24:55;101321.02;;;-0.14;95.78
35577;BME280;21680;52.400;16.920;2023-01-27T07:27:22;101323.17;;;-0.10;95.70
35577;BME280;21680;52.400;16.920;2023-01-27T07:29:47;101323.05;;;-0.05;95.78
35577;BME280;21680;52.400;16.920;2023-01-27T07:32:12;101325.02;;;0.00;95.79
35577;BME280;21680;52.400;16.920;2023-01-27T07:34:38;101329.31;;;0.09;96.01
35577;BME280;21680;52.400;16.920;2023-01-27T07:37:03;101334.16;;;0.19;96.10
35577;BME280;21680;52.400;16.920;2023-01-27T07:39:29;101334.89;;;0.21;95.94
35577;BME280;21680;52.400;16.920;2023-01-27T07:41:55;101336.48;;;0.22;95.79
35577;BME280;21680;52.400;16.920;2023-01-27T07:44:21;101343.89;;;0.25;96.03
35577;BME280;21680;52.400;16.920;2023-01-27T07:46:47;101348.35;;;0.32;96.07
35577;BME280;21680;52.400;16.920;2023-01-27T07:49:12;101349.97;;;0.36;96.05
35577;BME280;21680;52.400;16.920;2023-01-27T07:51:38;101354.71;;;0.36;95.88
35577;BME280;21680;52.400;16.920;2023-01-27T07:54:04;101353.84;;;0.36;96.00
35577;BME280;21680;52.400;16.920;2023-01-27T07:56:29;101358.80;;;0.40;95.76
35577;BME280;21680;52.400;16.920;2023-01-27T07:58:56;101361.44;;;0.40;95.92
35577;BME280;21680;52.400;16.920;2023-01-27T08:01:22;101364.28;;;0.43;96.13
35577;BME280;21680;52.400;16.920;2023-01-27T08:03:48;101365.52;;;0.45;95.89
35577;BME280;21680;52.400;16.920;2023-01-27T08:06:13;101371.54;;;0.48;96.26
35577;BME280;21680;52.400;16.920;2023-01-27T08:08:38;101372.63;;;0.52;96.21
35577;BME280;21680;52.400;16.920;2023-01-27T08:11:06;101372.27;;;0.50;95.97
35577;BME280;21680;52.400;16.920;2023-01-27T08:13:35;101375.42;;;0.51;95.86
35577;BME280;21680;52.400;16.920;2023-01-27T08:16:03;101378.42;;;0.50;95.95
35577;BME280;21680;52.400;16.920;2023-01-27T08:18:32;101382.66;;;0.53;96.02
35577;BME280;21680;52.400;16.920;2023-01-27T08:20:59;101377.27;;;0.59;96.18
35577;BME280;21680;52.400;16.920;2023-01-27T08:23:25;101383.95;;;0.59;95.96
35577;BME280;21680;52.400;16.920;2023-01-27T08:25:52;101381.15;;;0.61;96.20
35577;BME280;21680;52.400;16.920;2023-01-27T08:28:18;101384.57;;;0.70;96.43
35577;BME280;21680;52.400;16.920;2023-01-27T08:30:45;101381.59;;;0.71;96.32
35577;BME280;21680;52.400;16.920;2023-01-27T08:33:11;101381.92;;;0.71;96.19
35577;BME280;21680;52.400;16.920;2023-01-27T08:35:36;101387.39;;;0.71;96.23
35577;BME280;21680;52.400;16.920;2023-01-27T08:38:04;101393.88;;;0.68;95.96
35577;BME280;21680;52.400;16.920;2023-01-27T08:40:30;101397.39;;;0.68;96.12
35577;BME280;21680;52.400;16.920;2023-01-27T08:42:55;101398.80;;;0.69;96.14
35577;BME280;21680;52.400;16.920;2023-01-27T08:45:20;101400.55;;;0.68;96.16
35577;BME280;21680;52.400;16.920;2023-01-27T08:47:46;101404.61;;;0.69;96.11
35577;BME280;21680;52.400;16.920;2023-01-27T08:50:11;101405.66;;;0.69;96.18
35577;BME280;21680;52.400;16.920;2023-01-27T08:52:36;101404.58;;;0.66;96.20
35577;BME280;21680;52.400;16.920;2023-01-27T08:55:02;101403.67;;;0.62;95.99
35577;BME280;21680;52.400;16.920;2023-01-27T08:57:28;101405.95;;;0.61;96.07
35577;BME280;21680;52.400;16.920;2023-01-27T08:59:56;101401.53;;;0.59;96.16
35577;BME280;21680;52.400;16.920;2023-01-27T09:02:22;101403.50;;;0.62;96.23
35577;BME280;21680;52.400;16.920;2023-01-27T09:04:49;101406.16;;;0.64;96.33
35577;BME280;21680;52.400;16.920;2023-01-27T09:07:15;101406.50;;;0.64;96.22
35577;BME280;21680;52.400;16.920;2023-01-27T09:09:40;101406.81;;;0.60;96.01
35577;BME280;21680;52.400;16.920;2023-01-27T09:12:06;101405.23;;;0.59;96.24
35577;BME280;21680;52.400;16.920;2023-01-27T09:14:32;101405.09;;;0.64;96.29
35577;BME280;21680;52.400;16.920;2023-01-27T09:16:57;101403.21;;;0.69;96.30
35577;BME280;21680;52.400;16.920;2023-01-27T09:19:23;101409.06;;;0.75;96.39
35577;BME280;21680;52.400;16.920;2023-01-27T09:21:48;101407.36;;;0.81;96.56
35577;BME280;21680;52.400;16.920;2023-01-27T09:24:13;101410.07;;;0.89;96.60
35577;BME280;21680;52.400;16.920;2023-01-27T09:26:42;101407.13;;;0.96;96.60
35577;BME280;21680;52.400;16.920;2023-01-27T09:29:07;101407.12;;;0.94;96.25
35577;BME280;21680;52.400;16.920;2023-01-27T09:31:33;101412.05;;;0.94;96.40
35577;BME280;21680;52.400;16.920;2023-01-27T09:33:58;101411.52;;;0.94;96.31
35577;BME280;21680;52.400;16.920;2023-01-27T09:36:24;101410.63;;;0.94;96.24
35577;BME280;21680;52.400;16.920;2023-01-27T09:39:00;101413.13;;;0.97;96.43
35577;BME280;21680;52.400;16.920;2023-01-27T09:48:01;101415.04;;;1.17;96.44
35577;BME280;21680;52.400;16.920;2023-01-27T09:50:36;101415.04;;;1.17;96.16
35577;BME280;21680;52.400;16.920;2023-01-27T09:53:58;101418.05;;;1.20;96.10
35577;BME280;21680;52.400;16.920;2023-01-27T10:04:53;101428.73;;;1.12;95.74
35577;BME280;21680;52.400;16.920;2023-01-27T10:07:29;101429.96;;;1.14;95.78
35577;BME280;21680;52.400;16.920;2023-01-27T10:13:10;101426.58;;;1.07;95.51
35577;BME280;21680;52.400;16.920;2023-01-27T10:16:06;101432.69;;;1.02;95.41
35577;BME280;21680;52.400;16.920;2023-01-27T10:19:01;101441.91;;;0.90;95.02
35577;BME280;21680;52.400;16.920;2023-01-27T10:27:19;101445.41;;;0.87;94.94
35577;BME280;21680;52.400;16.920;2023-01-27T10:29:53;101447.17;;;0.88;94.76
35577;BME280;21680;52.400;16.920;2023-01-27T10:32:53;101445.78;;;0.89;94.61
35577;BME280;21680;52.400;16.920;2023-01-27T10:35:17;101447.83;;;0.82;94.31
35577;BME280;21680;52.400;16.920;2023-01-27T10:40:39;101441.69;;;0.84;94.46
35577;BME280;21680;52.400;16.920;2023-01-27T10:43:21;101441.92;;;0.90;94.44
35577;BME280;21680;52.400;16.920;2023-01-27T10:45:55;101448.50;;;0.98;94.49
35577;BME280;21680;52.400;16.920;2023-01-27T10:51:31;101445.56;;;1.05;94.06
35577;BME280;21680;52.400;16.920;2023-01-27T10:54:20;101448.55;;;1.05;94.13
35577;BME280;21680;52.400;16.920;2023-01-27T10:57:16;101448.73;;;1.07;94.21
35577;BME280;21680;52.400;16.920;2023-01-27T10:59:51;101451.20;;;1.06;94.11
35577;BME280;21680;52.400;16.920;2023-01-27T11:02:30;101452.74;;;1.00;93.83
35577;BME280;21680;52.400;16.920;2023-01-27T11:05:01;101454.15;;;1.00;94.05
35577;BME280;21680;52.400;16.920;2023-01-27T11:07:30;101456.80;;;1.01;93.88
35577;BME280;21680;52.400;16.920;2023-01-27T11:10:01;101453.64;;;1.03;93.76
35577;BME280;21680;52.400;16.920;2023-01-27T11:12:34;101450.02;;;1.10;93.84
35577;BME280;21680;52.400;16.920;2023-01-27T11:15:13;101449.52;;;1.14;93.73
35577;BME280;21680;52.400;16.920;2023-01-27T11:17:47;101449.77;;;1.22;93.75
35577;BME280;21680;52.400;16.920;2023-01-27T11:22:51;101456.52;;;1.32;93.71
35577;BME280;21680;52.400;16.920;2023-01-27T11:36:45;101468.09;;;1.24;92.92
35577;BME280;21680;52.400;16.920;2023-01-27T11:39:13;101466.13;;;1.21;92.88
35577;BME280;21680;52.400;16.920;2023-01-27T11:41:42;101467.36;;;1.22;92.98
35577;BME280;21680;52.400;16.920;2023-01-27T11:44:27;101470.84;;;1.18;92.81
35577;BME280;21680;52.400;16.920;2023-01-27T11:46:54;101468.33;;;1.11;92.67
35577;BME280;21680;52.400;16.920;2023-01-27T11:49:33;101470.88;;;1.02;92.45
35577;BME280;21680;52.400;16.920;2023-01-27T11:52:11;101474.33;;;0.94;92.24
35577;BME280;21680;52.400;16.920;2023-01-27T11:55:14;101471.85;;;0.92;92.15
35577;BME280;21680;52.400;16.920;2023-01-27T11:57:42;101475.79;;;1.00;92.48
35577;BME280;21680;52.400;16.920;2023-01-27T12:00:23;101476.13;;;0.97;92.18
35577;BME280;21680;52.400;16.920;2023-01-27T12:05:55;101472.61;;;0.97;91.95
35577;BME280;21680;52.400;16.920;2023-01-27T12:08:44;101470.70;;;1.02;91.85
35577;BME280;21680;52.400;16.920;2023-01-27T12:11:22;101472.56;;;1.12;92.10
35577;BME280;21680;52.400;16.920;2023-01-27T12:16:15;101465.80;;;1.25;91.83
35577;BME280;21680;52.400;16.920;2023-01-27T12:18:48;101467.55;;;1.23;91.69
35577;BME280;21680;52.400;16.920;2023-01-27T12:21:16;101463.64;;;1.20;91.52
35577;BME280;21680;52.400;16.920;2023-01-27T12:23:53;101458.45;;;1.31;91.90
35577;BME280;21680;52.400;16.920;2023-01-27T12:26:52;101456.70;;;1.33;91.38
35577;BME280;21680;52.400;16.920;2023-01-27T12:29:23;101458.66;;;1.37;91.57
35577;BME280;21680;52.400;16.920;2023-01-27T12:31:55;101456.73;;;1.37;91.40
35577;BME280;21680;52.400;16.920;2023-01-27T12:34:32;101462.52;;;1.35;91.20
35577;BME280;21680;52.400;16.920;2023-01-27T12:37:00;101467.43;;;1.33;91.07
35577;BME280;21680;52.400;16.920;2023-01-27T12:39:42;101463.48;;;1.22;90.75
35577;BME280;21680;52.400;16.920;2023-01-27T12:42:32;101462.95;;;1.21;90.74
35577;BME280;21680;52.400;16.920;2023-01-27T12:50:54;101467.84;;;1.17;90.67
35577;BME280;21680;52.400;16.920;2023-01-27T12:53:25;101462.39;;;1.18;90.66
35577;BME280;21680;52.400;16.920;2023-01-27T13:01:04;101468.44;;;1.25;90.60
35577;BME280;21680;52.400;16.920;2023-01-27T13:03:37;101465.88;;;1.36;90.69
35577;BME280;21680;52.400;16.920;2023-01-27T13:06:04;101466.83;;;1.45;90.68
35577;BME280;21680;52.400;16.920;2023-01-27T13:08:31;101471.96;;;1.50;90.50
35577;BME280;21680;52.400;16.920;2023-01-27T13:10:59;101476.36;;;1.49;90.55
35577;BME280;21680;52.400;16.920;2023-01-27T13:13:27;101476.00;;;1.49;90.59
35577;BME280;21680;52.400;16.920;2023-01-27T13:16:14;101475.79;;;1.43;90.32
35577;BME280;21680;52.400;16.920;2023-01-27T13:18:41;101474.34;;;1.37;90.21
35577;BME280;21680;52.400;16.920;2023-01-27T13:21:14;101471.48;;;1.33;90.34
35577;BME280;21680;52.400;16.920;2023-01-27T13:23:41;101479.58;;;1.31;90.30
35577;BME280;21680;52.400;16.920;2023-01-27T13:28:52;101488.48;;;1.22;89.87
35577;BME280;21680;52.400;16.920;2023-01-27T13:37:19;101496.43;;;1.06;89.93
35577;BME280;21680;52.400;16.920;2023-01-27T13:40:17;101499.95;;;1.05;90.15
35577;BME280;21680;52.400;16.920;2023-01-27T13:42:53;101501.52;;;1.05;89.90
35577;BME280;21680;52.400;16.920;2023-01-27T13:45:38;101499.62;;;1.07;90.17
35577;BME280;21680;52.400;16.920;2023-01-27T13:50:42;101498.92;;;1.08;89.79
35577;BME280;21680;52.400;16.920;2023-01-27T13:53:11;101503.98;;;1.04;89.83
35577;BME280;21680;52.400;16.920;2023-01-27T13:58:51;101508.02;;;1.01;89.95
35577;BME280;21680;52.400;16.920;2023-01-27T14:01:39;101506.06;;;1.01;89.88
35577;BME280;21680;52.400;16.920;2023-01-27T14:07:12;101501.59;;;0.93;89.67
35577;BME280;21680;52.400;16.920;2023-01-27T14:09:48;101503.34;;;0.90;89.71
35577;BME280;21680;52.400;16.920;2023-01-27T14:15:19;101495.56;;;0.87;89.78
35577;BME280;21680;52.400;16.920;2023-01-27T14:18:25;101501.19;;;0.87;89.84
35577;BME280;21680;52.400;16.920;2023-01-27T14:21:06;101506.40;;;0.81;89.68
35577;BME280;21680;52.400;16.920;2023-01-27T14:26:30;101503.44;;;0.84;89.77
35577;BME280;21680;52.400;16.920;2023-01-27T14:29:22;101504.98;;;0.80;89.65
35577;BME280;21680;52.400;16.920;2023-01-27T14:32:00;101511.15;;;0.80;89.88
35577;BME280;21680;52.400;16.920;2023-01-27T14:34:45;101508.70;;;0.82;89.95